Time;durP1;ratioP1;P1;durP2;ratioP2;P2;SDS_P1;SDS_P2;PMS_P1;PMS_P2;Temp;Humidity;BMP_temperature;BMP_pressure;BME280_temperature;BME280_humidity;BME280_pressure;Samples;Min_cycle;Max_cycle;Signal;HPM_P1;HPM_P2
2021/12/29 00:19:33;;;;;;;74.20;35.80;;;;;;;-3.80;86.31;97316.95;422332;1308;99307;-40
2021/12/29 00:29:37;;;;;;;88.10;41.40;;;;;;;-3.73;86.23;97314.42;422364;1312;112681;-39
2021/12/29 00:39:41;;;;;;;116.70;50.80;;;;;;;-3.70;86.28;97319.84;422548;1312;109831;-40
2021/12/29 00:49:46;;;;;;;119.30;49.30;;;;;;;-3.81;86.45;97316.19;422167;1312;99688;-38
2021/12/29 00:59:50;;;;;;;113.10;49.40;;;;;;;-3.86;86.49;97313.30;422505;1312;108987;-38
2021/12/29 01:09:54;;;;;;;106.80;46.30;;;;;;;-3.85;86.40;97308.91;422469;1312;99306;-40
2021/12/29 01:19:58;;;;;;;81.70;43.60;;;;;;;-3.80;86.42;97298.84;422202;1311;112493;-40
2021/12/29 01:30:06;;;;;;;102.00;48.50;;;;;;;-3.59;86.46;97292.23;422585;1307;109019;-40
2021/12/29 01:40:15;;;;;;;87.10;41.40;;;;;;;-3.40;86.68;97289.57;422294;1312;99912;-40
2021/12/29 01:50:19;;;;;;;88.50;42.20;;;;;;;-3.26;86.70;97288.81;422215;1307;108872;-41
2021/12/29 02:00:27;;;;;;;90.70;40.90;;;;;;;-3.22;86.75;97282.55;422528;1312;99305;-38
2021/12/29 02:10:40;;;;;;;75.30;35.70;;;;;;;-3.14;86.93;97283.07;421790;1312;112514;-39
2021/12/29 02:20:46;;;;;;;69.70;36.70;;;;;;;-3.00;86.75;97281.68;422773;1294;108847;-41
2021/12/29 02:30:50;;;;;;;80.20;37.50;;;;;;;-2.92;86.78;97278.61;422492;1309;99296;-41
2021/12/29 02:40:53;;;;;;;99.70;45.10;;;;;;;-2.91;86.96;97271.85;422472;1308;108912;-42
2021/12/29 02:50:59;;;;;;;85.50;41.80;;;;;;;-2.93;86.91;97269.00;422303;1309;99299;-40
2021/12/29 03:01:08;;;;;;;77.20;34.80;;;;;;;-2.85;87.05;97262.35;422536;1309;111456;-38
2021/12/29 03:11:12;;;;;;;74.70;33.50;;;;;;;-2.72;87.30;97252.93;422171;1306;107416;-40
2021/12/29 03:21:17;;;;;;;66.90;33.00;;;;;;;-2.64;87.18;97254.30;422577;1306;99302;-40
2021/12/29 03:31:21;;;;;;;98.40;45.00;;;;;;;-2.59;87.48;97261.70;422412;1309;109017;-41
2021/12/29 03:41:29;;;;;;;68.20;35.20;;;;;;;-2.58;87.56;97261.36;422386;1309;99308;-40
2021/12/29 03:51:33;;;;;;;75.80;36.10;;;;;;;-2.46;87.61;97275.31;422179;1309;112530;-40
2021/12/29 04:01:37;;;;;;;84.30;40.10;;;;;;;-2.40;87.57;97282.59;422225;1306;109659;-40
2021/12/29 04:11:41;;;;;;;95.40;43.40;;;;;;;-2.38;87.58;97285.09;422450;1312;99433;-40
2021/12/29 04:21:43;;;;;;;106.90;51.20;;;;;;;-2.45;87.57;97285.60;422326;1309;108950;-40
2021/12/29 04:31:47;;;;;;;83.70;38.50;;;;;;;-2.45;87.61;97282.14;422275;1308;99985;-39
2021/12/29 04:41:51;;;;;;;77.00;38.70;;;;;;;-2.38;87.92;97296.13;422255;1306;111959;-39
2021/12/29 05:01:59;;;;;;;79.80;41.10;;;;;;;-2.17;88.17;97310.80;422397;1309;99196;-41
2021/12/29 05:12:04;;;;;;;110.80;50.00;;;;;;;-2.09;88.23;97314.06;422299;1306;108788;-39
2021/12/29 05:22:08;;;;;;;117.70;53.90;;;;;;;-2.06;88.28;97317.20;422506;1306;98216;-40
2021/12/29 05:32:11;;;;;;;121.60;57.80;;;;;;;-2.04;88.35;97325.73;422626;1306;99193;-40
2021/12/29 05:42:15;;;;;;;108.60;56.60;;;;;;;-1.91;88.32;97327.04;422277;1306;108910;-40
2021/12/29 05:52:18;;;;;;;94.10;47.60;;;;;;;-1.73;88.66;97321.77;422531;1306;98080;-42
2021/12/29 06:02:23;;;;;;;110.00;53.80;;;;;;;-1.58;88.62;97328.23;422628;1306;112512;-39
2021/12/29 06:12:26;;;;;;;91.70;48.10;;;;;;;-1.44;88.75;97340.91;422573;1306;108872;-39
2021/12/29 06:22:30;;;;;;;85.10;47.20;;;;;;;-1.32;88.76;97345.42;422286;1306;99017;-40
2021/12/29 06:32:34;;;;;;;79.40;44.30;;;;;;;-1.22;88.65;97353.00;422460;1307;108615;-39
2021/12/29 06:42:38;;;;;;;125.30;57.80;;;;;;;-1.23;89.01;97370.67;422088;1302;99400;-40
2021/12/29 06:52:41;;;;;;;143.10;65.60;;;;;;;-1.26;89.11;97385.97;422516;1306;112415;-40
2021/12/29 07:02:45;;;;;;;110.30;56.20;;;;;;;-1.23;89.14;97403.11;422196;1306;108724;-40
2021/12/29 07:12:49;;;;;;;103.00;54.70;;;;;;;-1.10;89.31;97406.27;418534;1306;5579855;-40
2021/12/29 07:22:53;;;;;;;90.80;53.90;;;;;;;-0.96;89.44;97419.54;422527;1306;108951;-39
2021/12/29 07:32:57;;;;;;;97.40;52.60;;;;;;;-0.83;89.37;97428.15;422319;1306;98478;-39
2021/12/29 07:43:09;;;;;;;106.00;57.70;;;;;;;-0.71;89.58;97438.23;422466;1309;109506;-40
2021/12/29 07:53:17;;;;;;;108.30;53.70;;;;;;;-0.65;89.40;97449.31;422225;1306;108820;-39
2021/12/29 08:03:22;;;;;;;121.40;57.20;;;;;;;-0.60;89.82;97463.41;422592;1306;99318;-40
2021/12/29 08:13:25;;;;;;;107.10;48.00;;;;;;;-0.53;89.81;97466.17;422345;1306;108963;-39
2021/12/29 08:23:29;;;;;;;95.40;47.60;;;;;;;-0.43;90.11;97470.38;422468;1309;98487;-41
2021/12/29 08:43:36;;;;;;;98.30;50.70;;;;;;;-0.23;90.40;97487.91;422403;1306;109068;-40
2021/12/29 08:53:40;;;;;;;132.30;63.60;;;;;;;-0.17;90.47;97480.92;422371;1307;99932;-41
2021/12/29 09:03:58;;;;;;;91.80;47.60;;;;;;;-0.12;90.22;97485.94;422315;1306;109056;-40
2021/12/29 09:14:02;;;;;;;86.20;47.50;;;;;;;0.05;90.34;97491.80;422488;1306;99315;-40
2021/12/29 09:24:09;;;;;;;94.10;52.30;;;;;;;0.26;90.13;97503.51;422369;1306;112743;-39
2021/12/29 09:34:13;;;;;;;106.80;54.10;;;;;;;0.41;90.37;97510.97;422287;1306;108862;-41
2021/12/29 09:44:17;;;;;;;132.70;63.10;;;;;;;0.53;90.28;97519.02;422449;1306;99553;-40
2021/12/29 09:54:21;;;;;;;130.40;62.20;;;;;;;0.59;90.20;97508.73;422644;1306;99346;-41
2021/12/29 10:04:25;;;;;;;130.10;62.30;;;;;;;0.71;90.20;97514.51;422582;1306;109418;-41
2021/12/29 10:14:34;;;;;;;91.90;50.10;;;;;;;0.86;89.93;97513.73;422526;1306;99575;-40
2021/12/29 10:24:37;;;;;;;82.30;44.90;;;;;;;1.20;89.96;97525.65;422537;1306;108069;-39
2021/12/29 10:34:51;;;;;;;91.20;48.70;;;;;;;1.55;89.97;97535.88;422472;1306;99293;-40
2021/12/29 10:44:59;;;;;;;113.10;56.50;;;;;;;1.61;89.82;97534.80;422697;1306;111794;-41
2021/12/29 10:55:11;;;;;;;126.60;64.00;;;;;;;1.57;89.76;97536.88;422499;1309;108827;-42
2021/12/29 11:05:15;;;;;;;73.30;43.30;;;;;;;1.56;89.72;97521.00;422287;1308;99388;-40
2021/12/29 11:15:21;;;;;;;68.90;41.10;;;;;;;1.72;89.78;97518.58;422388;1306;109094;-40
2021/12/29 11:25:26;;;;;;;85.90;45.00;;;;;;;1.98;89.62;97538.02;422153;1306;99422;-41
2021/12/29 11:35:31;;;;;;;96.50;48.00;;;;;;;1.99;89.61;97538.03;422214;1306;112444;-41
2021/12/29 11:45:36;;;;;;;108.90;53.60;;;;;;;1.96;89.75;97540.28;422283;1309;108964;-43
2021/12/29 11:55:41;;;;;;;109.80;53.50;;;;;;;1.93;89.57;97556.36;422471;1309;99283;-42
2021/12/29 12:15:52;;;;;;;63.60;37.60;;;;;;;2.19;89.53;97559.33;422282;1309;99318;-42
2021/12/29 12:26:07;;;;;;;62.80;35.00;;;;;;;2.36;89.41;97572.33;421790;1308;112709;-40
2021/12/29 12:36:10;;;;;;;89.20;44.30;;;;;;;2.35;89.34;97585.23;422425;1309;108839;-41
2021/12/29 12:56:22;;;;;;;98.10;49.50;;;;;;;2.21;89.33;97604.77;422520;1306;109038;-40
2021/12/29 13:06:34;;;;;;;59.20;35.10;;;;;;;2.20;89.45;97613.11;422435;1306;100086;-41
2021/12/29 13:16:38;;;;;;;55.50;31.90;;;;;;;2.18;89.39;97614.92;422261;1307;112638;-40
2021/12/29 13:26:46;;;;;;;61.50;37.40;;;;;;;2.25;89.46;97616.64;422336;1306;108964;-41
2021/12/29 13:36:50;;;;;;;98.10;50.00;;;;;;;2.30;89.42;97621.65;422656;1306;99293;-41
2021/12/29 13:46:53;;;;;;;113.00;51.60;;;;;;;2.26;89.51;97628.88;422439;1306;109052;-39
2021/12/29 13:57:00;;;;;;;86.10;48.60;;;;;;;2.23;89.11;97645.77;422290;1306;99293;-40
2021/12/29 14:07:09;;;;;;;88.30;50.10;;;;;;;2.10;88.98;97654.43;422309;1305;113091;-39
2021/12/29 14:17:13;;;;;;;92.40;49.40;;;;;;;2.05;89.31;97669.59;421961;1309;109095;-40
2021/12/29 14:27:21;;;;;;;129.40;64.40;;;;;;;2.01;89.49;97686.67;422441;1309;99295;-40
2021/12/29 14:37:28;;;;;;;139.20;65.90;;;;;;;1.96;89.64;97711.50;422654;1306;108924;-40
2021/12/29 14:47:32;;;;;;;132.70;62.00;;;;;;;1.88;89.56;97730.27;422535;1306;99649;-40
2021/12/29 14:57:36;;;;;;;79.70;42.30;;;;;;;1.84;89.49;97744.94;422388;1306;112615;-39
2021/12/29 15:07:45;;;;;;;60.70;33.80;;;;;;;1.93;89.35;97761.63;415953;1306;9027438;-41
2021/12/29 15:17:57;;;;;;;61.50;33.10;;;;;;;2.04;89.54;97777.90;422616;1306;112412;-41
2021/12/29 15:28:06;;;;;;;81.90;42.00;;;;;;;2.04;89.55;97778.42;422178;1308;108857;-40
2021/12/29 15:38:10;;;;;;;91.30;46.60;;;;;;;1.92;89.47;97784.32;422279;1307;99187;-42
2021/12/29 15:48:15;;;;;;;113.50;54.90;;;;;;;1.75;89.50;97788.86;422372;1309;99357;-40
2021/12/29 15:58:19;;;;;;;85.20;47.30;;;;;;;1.70;89.47;97802.52;422482;1309;108052;-41
2021/12/29 16:08:23;;;;;;;76.00;46.10;;;;;;;1.74;89.33;97816.41;422327;1306;99323;-40
2021/12/29 16:18:30;;;;;;;51.30;30.60;;;;;;;1.76;89.49;97820.42;422501;1307;108917;-41
2021/12/29 16:28:32;;;;;;;73.30;37.80;;;;;;;1.72;89.45;97827.10;422311;1309;98502;-41
2021/12/29 16:38:39;;;;;;;115.60;54.40;;;;;;;1.74;89.73;97846.88;422521;1306;112790;-40
2021/12/29 16:48:43;;;;;;;118.90;54.80;;;;;;;1.73;89.81;97857.46;422508;1306;109135;-42
2021/12/29 16:58:48;;;;;;;116.70;53.90;;;;;;;1.62;89.59;97864.27;422247;1306;98999;-40
2021/12/29 17:08:52;;;;;;;76.60;45.50;;;;;;;1.56;89.64;97872.98;422539;1306;111610;-40
2021/12/29 17:18:59;;;;;;;76.60;43.30;;;;;;;1.54;89.43;97884.08;422203;1312;109386;-42
2021/12/29 17:39:11;;;;;;;88.20;49.50;;;;;;;1.75;89.87;97920.06;422438;1306;106941;-46
2021/12/29 17:49:14;;;;;;;107.80;54.10;;;;;;;1.75;89.87;97923.19;422292;1306;99319;-39
2021/12/29 17:59:18;;;;;;;107.90;52.70;;;;;;;1.67;89.84;97934.68;422345;1306;113144;-40
2021/12/29 18:09:22;;;;;;;113.70;54.50;;;;;;;1.57;89.84;97948.31;422198;1309;99945;-41
2021/12/29 18:19:27;;;;;;;73.30;46.00;;;;;;;1.54;89.77;97957.39;422563;1306;99312;-41
2021/12/29 18:29:33;;;;;;;83.60;43.90;;;;;;;1.62;89.78;97961.17;422103;1312;112094;-40
2021/12/29 18:39:37;;;;;;;83.20;47.50;;;;;;;1.68;89.89;97961.98;422087;1314;108779;-40
2021/12/29 18:49:40;;;;;;;116.40;63.30;;;;;;;1.70;89.80;97965.06;422316;1312;98899;-41
2021/12/29 18:59:45;;;;;;;166.20;87.10;;;;;;;1.70;89.82;97965.90;422120;1306;109101;-40
2021/12/29 19:09:49;;;;;;;237.90;112.90;;;;;;;1.69;89.83;97962.56;422440;1309;99257;-41
2021/12/29 19:19:53;;;;;;;315.80;127.90;;;;;;;1.57;89.84;97959.54;422343;1312;112470;-40
2021/12/29 19:29:57;;;;;;;328.10;152.40;;;;;;;1.44;90.12;97963.89;422257;1309;108888;-41
2021/12/29 19:50:07;;;;;;;188.40;99.90;;;;;;;1.37;89.83;97970.14;422604;1307;108844;-39
2021/12/29 20:00:14;;;;;;;175.40;90.70;;;;;;;1.31;89.92;97973.10;422644;1310;98905;-40
2021/12/29 20:10:19;;;;;;;137.10;78.30;;;;;;;1.25;89.97;97979.59;422431;1310;112502;-40
2021/12/29 20:30:27;;;;;;;128.00;66.80;;;;;;;1.29;90.12;97992.32;422347;1307;98106;-40
2021/12/29 20:40:32;;;;;;;107.80;62.10;;;;;;;1.22;90.08;97989.13;422328;1310;109180;-40
2021/12/29 20:50:36;;;;;;;98.50;56.80;;;;;;;1.16;90.17;97988.14;422269;1312;99572;-40
2021/12/29 21:00:40;;;;;;;132.40;66.20;;;;;;;1.11;90.16;97984.08;422506;1308;112577;-40
2021/12/29 21:10:45;;;;;;;109.30;53.90;;;;;;;1.10;90.39;97988.64;422015;1307;109344;-41
2021/12/29 21:20:49;;;;;;;107.80;55.20;;;;;;;1.10;90.51;97990.25;422320;1306;99317;-39
2021/12/29 21:30:52;;;;;;;96.60;49.30;;;;;;;1.07;90.59;97991.77;422623;1306;109420;-41
2021/12/29 21:40:57;;;;;;;88.10;46.50;;;;;;;1.07;90.33;97993.06;422238;1311;98082;-40
2021/12/29 21:51:03;;;;;;;74.80;41.20;;;;;;;1.03;90.39;98006.32;422517;1310;111563;-40
2021/12/29 22:01:07;;;;;;;72.50;41.40;;;;;;;1.08;90.53;98021.88;422166;1311;109128;-41
2021/12/29 22:11:11;;;;;;;113.10;51.70;;;;;;;1.11;90.65;98035.80;422306;1308;99292;-42
2021/12/29 22:21:16;;;;;;;106.70;51.90;;;;;;;1.05;90.72;98040.90;422643;1309;99315;-40
2021/12/29 22:31:24;;;;;;;81.80;49.10;;;;;;;1.09;90.55;98042.30;422486;1310;108906;-40
2021/12/29 22:41:28;;;;;;;88.60;48.10;;;;;;;1.16;90.72;98045.42;422111;1307;99291;-40
2021/12/29 22:51:31;;;;;;;85.10;48.10;;;;;;;1.21;90.73;98058.23;422621;1307;107876;-40
2021/12/29 23:01:35;;;;;;;99.60;53.00;;;;;;;1.27;90.68;98060.22;422050;1309;99277;-40
2021/12/29 23:11:39;;;;;;;97.40;55.10;;;;;;;1.32;90.82;98063.98;421899;1308;716554;-39
2021/12/29 23:21:46;;;;;;;119.10;59.90;;;;;;;1.36;90.82;98078.21;422364;1308;108863;-39
